<?xml version="1.0" encoding="UTF-8" standalone="no" ?>
<gpx xmlns="http://www.topografix.com/GPX/1/1" xmlns:xsi="http://www.w3.org/2001/XMLSchema-instance" xsi:schemaLocation="http://www.topografix.com/GPX/1/1 http://www.topografix.com/GPX/1/1/gpx.xsd" version="1.1" creator="VisuGPX - https://www.visugpx.com">
  <metadata>
    <name>cap le soir</name>
  </metadata>
  <trk>
    <name><![CDATA[20200923_182819.gpx]]></name>
    <trkseg>
      <trkpt lat="47.52081" lon="6.77555">
        <ele>374.47278</ele>
        <time>2020-09-23T16:28:29Z</time>
      </trkpt>
      <trkpt lat="47.52088" lon="6.77589">
        <ele>373.3523</ele>
        <time>2020-09-23T16:28:35Z</time>
      </trkpt>
      <trkpt lat="47.52087" lon="6.77634">
        <ele>376.0503</ele>
        <time>2020-09-23T16:28:45Z</time>
      </trkpt>
      <trkpt lat="47.52087" lon="6.77667">
        <ele>379.4331</ele>
        <time>2020-09-23T16:28:54Z</time>
      </trkpt>
      <trkpt lat="47.52089" lon="6.77677">
        <ele>379.97635</ele>
        <time>2020-09-23T16:28:59Z</time>
      </trkpt>
      <trkpt lat="47.52082" lon="6.77696">
        <ele>381.58228</ele>
        <time>2020-09-23T16:29:05Z</time>
      </trkpt>
      <trkpt lat="47.52073" lon="6.77707">
        <ele>383.68076</ele>
        <time>2020-09-23T16:29:10Z</time>
      </trkpt>
      <trkpt lat="47.52066" lon="6.77715">
        <ele>384.92538</ele>
        <time>2020-09-23T16:29:15Z</time>
      </trkpt>
      <trkpt lat="47.52054" lon="6.77726">
        <ele>385.5976</ele>
        <time>2020-09-23T16:29:20Z</time>
      </trkpt>
      <trkpt lat="47.52033" lon="6.7775">
        <ele>387.25693</ele>
        <time>2020-09-23T16:29:30Z</time>
      </trkpt>
      <trkpt lat="47.52012" lon="6.77766">
        <ele>387.94272</ele>
        <time>2020-09-23T16:29:40Z</time>
      </trkpt>
      <trkpt lat="47.51988" lon="6.77794">
        <ele>388.59735</ele>
        <time>2020-09-23T16:29:50Z</time>
      </trkpt>
      <trkpt lat="47.51975" lon="6.77802">
        <ele>387.99673</ele>
        <time>2020-09-23T16:29:55Z</time>
      </trkpt>
      <trkpt lat="47.51962" lon="6.77812">
        <ele>387.99985</ele>
        <time>2020-09-23T16:30:00Z</time>
      </trkpt>
      <trkpt lat="47.5195" lon="6.77819">
        <ele>388.17548</ele>
        <time>2020-09-23T16:30:05Z</time>
      </trkpt>
      <trkpt lat="47.51926" lon="6.77841">
        <ele>387.80865</ele>
        <time>2020-09-23T16:30:15Z</time>
      </trkpt>
      <trkpt lat="47.51909" lon="6.7787">
        <ele>387.86478</ele>
        <time>2020-09-23T16:30:25Z</time>
      </trkpt>
      <trkpt lat="47.51896" lon="6.77891">
        <ele>386.3623</ele>
        <time>2020-09-23T16:30:35Z</time>
      </trkpt>
      <trkpt lat="47.5188" lon="6.77905">
        <ele>386.35608</ele>
        <time>2020-09-23T16:30:40Z</time>
      </trkpt>
      <trkpt lat="47.51869" lon="6.77919">
        <ele>386.33633</ele>
        <time>2020-09-23T16:30:45Z</time>
      </trkpt>
      <trkpt lat="47.5186" lon="6.77931">
        <ele>387.14783</ele>
        <time>2020-09-23T16:30:50Z</time>
      </trkpt>
      <trkpt lat="47.51851" lon="6.77945">
        <ele>387.844</ele>
        <time>2020-09-23T16:30:55Z</time>
      </trkpt>
      <trkpt lat="47.51839" lon="6.7796">
        <ele>387.9105</ele>
        <time>2020-09-23T16:31:00Z</time>
      </trkpt>
      <trkpt lat="47.51815" lon="6.77983">
        <ele>388.2056</ele>
        <time>2020-09-23T16:31:10Z</time>
      </trkpt>
      <trkpt lat="47.51788" lon="6.78002">
        <ele>389.09924</ele>
        <time>2020-09-23T16:31:20Z</time>
      </trkpt>
      <trkpt lat="47.51761" lon="6.78018">
        <ele>389.9316</ele>
        <time>2020-09-23T16:31:30Z</time>
      </trkpt>
      <trkpt lat="47.51745" lon="6.78027">
        <ele>389.59805</ele>
        <time>2020-09-23T16:31:35Z</time>
      </trkpt>
      <trkpt lat="47.51732" lon="6.78035">
        <ele>390.13843</ele>
        <time>2020-09-23T16:31:40Z</time>
      </trkpt>
      <trkpt lat="47.51722" lon="6.78041">
        <ele>390.84924</ele>
        <time>2020-09-23T16:31:45Z</time>
      </trkpt>
      <trkpt lat="47.51696" lon="6.78055">
        <ele>392.05478</ele>
        <time>2020-09-23T16:31:55Z</time>
      </trkpt>
      <trkpt lat="47.51674" lon="6.78075">
        <ele>392.3998</ele>
        <time>2020-09-23T16:32:05Z</time>
      </trkpt>
      <trkpt lat="47.5165" lon="6.78084">
        <ele>393.885</ele>
        <time>2020-09-23T16:32:15Z</time>
      </trkpt>
      <trkpt lat="47.51646" lon="6.78099">
        <ele>393.87775</ele>
        <time>2020-09-23T16:32:20Z</time>
      </trkpt>
      <trkpt lat="47.51638" lon="6.7811">
        <ele>394.4234</ele>
        <time>2020-09-23T16:32:25Z</time>
      </trkpt>
      <trkpt lat="47.5163" lon="6.78128">
        <ele>394.38806</ele>
        <time>2020-09-23T16:32:30Z</time>
      </trkpt>
      <trkpt lat="47.51609" lon="6.7816">
        <ele>393.85797</ele>
        <time>2020-09-23T16:32:40Z</time>
      </trkpt>
      <trkpt lat="47.51586" lon="6.78195">
        <ele>393.66156</ele>
        <time>2020-09-23T16:32:50Z</time>
      </trkpt>
      <trkpt lat="47.51566" lon="6.78216">
        <ele>392.88516</ele>
        <time>2020-09-23T16:33:00Z</time>
      </trkpt>
      <trkpt lat="47.51546" lon="6.78224">
        <ele>392.13272</ele>
        <time>2020-09-23T16:33:05Z</time>
      </trkpt>
      <trkpt lat="47.51537" lon="6.78229">
        <ele>391.7534</ele>
        <time>2020-09-23T16:33:10Z</time>
      </trkpt>
      <trkpt lat="47.51519" lon="6.78231">
        <ele>391.75858</ele>
        <time>2020-09-23T16:33:15Z</time>
      </trkpt>
      <trkpt lat="47.51493" lon="6.7821">
        <ele>392.76877</ele>
        <time>2020-09-23T16:33:25Z</time>
      </trkpt>
      <trkpt lat="47.5146" lon="6.782">
        <ele>391.7492</ele>
        <time>2020-09-23T16:33:35Z</time>
      </trkpt>
      <trkpt lat="47.51432" lon="6.78201">
        <ele>386.2771</ele>
        <time>2020-09-23T16:33:45Z</time>
      </trkpt>
      <trkpt lat="47.51419" lon="6.78242">
        <ele>383.53427</ele>
        <time>2020-09-23T16:33:55Z</time>
      </trkpt>
      <trkpt lat="47.51413" lon="6.78264">
        <ele>383.66827</ele>
        <time>2020-09-23T16:34:00Z</time>
      </trkpt>
      <trkpt lat="47.51405" lon="6.78281">
        <ele>383.3192</ele>
        <time>2020-09-23T16:34:05Z</time>
      </trkpt>
      <trkpt lat="47.514" lon="6.78299">
        <ele>382.60968</ele>
        <time>2020-09-23T16:34:10Z</time>
      </trkpt>
      <trkpt lat="47.51385" lon="6.78345">
        <ele>383.13116</ele>
        <time>2020-09-23T16:34:20Z</time>
      </trkpt>
      <trkpt lat="47.51372" lon="6.7839">
        <ele>381.8056</ele>
        <time>2020-09-23T16:34:30Z</time>
      </trkpt>
      <trkpt lat="47.51364" lon="6.7843">
        <ele>381.36725</ele>
        <time>2020-09-23T16:34:40Z</time>
      </trkpt>
      <trkpt lat="47.51357" lon="6.78448">
        <ele>380.22876</ele>
        <time>2020-09-23T16:34:45Z</time>
      </trkpt>
      <trkpt lat="47.51348" lon="6.78467">
        <ele>380.47702</ele>
        <time>2020-09-23T16:34:50Z</time>
      </trkpt>
      <trkpt lat="47.51343" lon="6.78483">
        <ele>380.44064</ele>
        <time>2020-09-23T16:34:55Z</time>
      </trkpt>
      <trkpt lat="47.51325" lon="6.78529">
        <ele>380.09683</ele>
        <time>2020-09-23T16:35:05Z</time>
      </trkpt>
      <trkpt lat="47.51308" lon="6.78578">
        <ele>381.38074</ele>
        <time>2020-09-23T16:35:15Z</time>
      </trkpt>
      <trkpt lat="47.51292" lon="6.7863">
        <ele>375.52997</ele>
        <time>2020-09-23T16:35:25Z</time>
      </trkpt>
      <trkpt lat="47.51287" lon="6.7865">
        <ele>373.66797</ele>
        <time>2020-09-23T16:35:30Z</time>
      </trkpt>
      <trkpt lat="47.51283" lon="6.78671">
        <ele>376.67654</ele>
        <time>2020-09-23T16:35:35Z</time>
      </trkpt>
      <trkpt lat="47.51279" lon="6.78689">
        <ele>376.931</ele>
        <time>2020-09-23T16:35:40Z</time>
      </trkpt>
      <trkpt lat="47.51268" lon="6.78729">
        <ele>376.50623</ele>
        <time>2020-09-23T16:35:50Z</time>
      </trkpt>
      <trkpt lat="47.51261" lon="6.78771">
        <ele>374.4977</ele>
        <time>2020-09-23T16:36:00Z</time>
      </trkpt>
    </trkseg>
  </trk>
</gpx>